Wetterdaten: Woche 04.04.16 - 10.04.16 (KW14)
Datum Zeit Temperatur Luftfeuchte Luftdruck Niederschlag Windrichtung Sonnenschein Solar Wind
04.04.2016 00:00 12,0 C 67 % 1006,2 hPa 0,0 l/m N 0,00 h 0 W/m 0,0 km/h (0 Bft)
04.04.2016 01:00 11,3 C 71 % 1005,9 hPa 0,0 l/m N 0,00 h 0 W/m 0,0 km/h (0 Bft)
04.04.2016 02:00 11,4 C 71 % 1005,7 hPa 0,0 l/m N 0,00 h 0 W/m 0,0 km/h (0 Bft)
04.04.2016 03:00 11,5 C 71 % 1005,6 hPa 0,0 l/m S-SO 0,00 h 0 W/m 0,8 km/h (0 Bft)
04.04.2016 04:00 10,7 C 77 % 1005,5 hPa 0,0 l/m N 0,00 h 0 W/m 0,0 km/h (0 Bft)
04.04.2016 05:00 10,4 C 79 % 1005,7 hPa 0,0 l/m N 0,00 h 0 W/m 1,9 km/h (1 Bft)
04.04.2016 06:00 9,8 C 84 % 1005,8 hPa 0,0 l/m N 0,00 h 0 W/m 0,3 km/h (0 Bft)
04.04.2016 07:00 8,8 C 87 % 1006,1 hPa 0,0 l/m N 0,00 h 21 W/m 0,0 km/h (0 Bft)
04.04.2016 08:00 9,2 C 87 % 1006,4 hPa 0,0 l/m N 0,33 h 117 W/m 0,0 km/h (0 Bft)
04.04.2016 09:00 12,8 C 77 % 1006,6 hPa 0,0 l/m O-NO 1,00 h 333 W/m 3,2 km/h (1 Bft)
04.04.2016 10:00 15,2 C 75 % 1006,5 hPa 0,0 l/m O-NO 0,50 h 353 W/m 4,9 km/h (1 Bft)
04.04.2016 11:00 17,0 C 68 % 1006,3 hPa 0,0 l/m O 0,83 h 603 W/m 12,9 km/h (3 Bft)
04.04.2016 12:00 18,2 C 59 % 1005,9 hPa 0,0 l/m O-NO 1,00 h 714 W/m 10,3 km/h (2 Bft)
04.04.2016 13:00 20,1 C 51 % 1005,3 hPa 0,0 l/m O-NO 1,00 h 756 W/m 8,6 km/h (2 Bft)
04.04.2016 14:00 20,8 C 47 % 1004,5 hPa 0,0 l/m S-SO 0,92 h 718 W/m 9,4 km/h (2 Bft)
04.04.2016 15:00 21,6 C 45 % 1003,8 hPa 0,0 l/m SO 0,75 h 576 W/m 10,3 km/h (2 Bft)
04.04.2016 16:00 20,9 C 52 % 1003,3 hPa 0,0 l/m N 0,67 h 464 W/m 18,6 km/h (3 Bft)
04.04.2016 17:00 19,0 C 63 % 1003,2 hPa 0,0 l/m N-NO 1,00 h 401 W/m 20,6 km/h (4 Bft)
04.04.2016 18:00 17,7 C 67 % 1003,2 hPa 0,0 l/m NO 0,75 h 169 W/m 19,4 km/h (3 Bft)
04.04.2016 19:00 16,4 C 71 % 1003,4 hPa 0,0 l/m N-NO 0,08 h 25 W/m 15,3 km/h (3 Bft)
04.04.2016 20:00 14,8 C 74 % 1004,1 hPa 0,0 l/m N-NO 0,00 h 0 W/m 12,1 km/h (2 Bft)
04.04.2016 21:00 13,3 C 76 % 1004,6 hPa 0,0 l/m N-NO 0,00 h 0 W/m 7,4 km/h (2 Bft)
04.04.2016 22:00 12,2 C 80 % 1004,1 hPa 0,0 l/m N 0,00 h 0 W/m 2,0 km/h (1 Bft)
04.04.2016 23:00 10,8 C 84 % 1004,0 hPa 0,0 l/m N 0,00 h 0 W/m 2,7 km/h (1 Bft)
05.04.2016 00:00 10,0 C 87 % 1003,8 hPa 0,0 l/m N 0,00 h 0 W/m 2,5 km/h (1 Bft)
05.04.2016 01:00 9,4 C 89 % 1003,6 hPa 0,0 l/m N 0,00 h 0 W/m 1,3 km/h (1 Bft)
05.04.2016 02:00 8,7 C 90 % 1003,2 hPa 0,0 l/m N 0,00 h 0 W/m 0,9 km/h (0 Bft)
05.04.2016 03:00 8,9 C 89 % 1003,0 hPa 0,0 l/m N 0,00 h 0 W/m 2,8 km/h (1 Bft)
05.04.2016 04:00 8,5 C 90 % 1002,8 hPa 0,0 l/m N 0,00 h 0 W/m 0,0 km/h (0 Bft)
05.04.2016 05:00 8,0 C 92 % 1002,5 hPa 0,0 l/m N 0,00 h 0 W/m 2,5 km/h (1 Bft)
05.04.2016 06:00 7,8 C 93 % 1002,6 hPa 0,0 l/m N 0,00 h 0 W/m 6,9 km/h (2 Bft)
05.04.2016 07:00 7,8 C 93 % 1003,3 hPa 0,0 l/m N-NW 0,00 h 18 W/m 6,2 km/h (2 Bft)
05.04.2016 08:00 8,2 C 92 % 1004,0 hPa 0,0 l/m NW 0,00 h 74 W/m 6,3 km/h (2 Bft)
05.04.2016 09:00 9,5 C 89 % 1004,4 hPa 0,0 l/m N 0,00 h 128 W/m 0,0 km/h (0 Bft)
05.04.2016 10:00 10,9 C 85 % 1004,8 hPa 0,0 l/m N 0,00 h 180 W/m 0,7 km/h (0 Bft)
05.04.2016 11:00 12,6 C 81 % 1005,3 hPa 0,0 l/m NW 0,08 h 254 W/m 1,7 km/h (1 Bft)
05.04.2016 12:00 14,9 C 73 % 1005,4 hPa 0,0 l/m N-NW 0,50 h 486 W/m 7,6 km/h (2 Bft)
05.04.2016 13:00 16,8 C 63 % 1005,3 hPa 0,0 l/m N-NO 0,58 h 441 W/m 9,4 km/h (2 Bft)
05.04.2016 14:00 17,5 C 60 % 1004,9 hPa 0,0 l/m N-NO 0,17 h 348 W/m 9,0 km/h (2 Bft)
05.04.2016 15:00 18,2 C 55 % 1004,8 hPa 0,0 l/m N-NO 0,67 h 481 W/m 7,9 km/h (2 Bft)
05.04.2016 16:00 18,6 C 54 % 1005,0 hPa 0,0 l/m N-NO 0,75 h 430 W/m 7,9 km/h (2 Bft)
05.04.2016 17:00 17,7 C 58 % 1005,4 hPa 0,0 l/m N-NO 0,00 h 104 W/m 12,8 km/h (3 Bft)
05.04.2016 18:00 15,2 C 68 % 1006,3 hPa 0,0 l/m N-NW 0,00 h 45 W/m 21,2 km/h (4 Bft)
05.04.2016 19:00 13,5 C 73 % 1007,3 hPa 0,0 l/m N-NW 0,00 h 12 W/m 15,2 km/h (3 Bft)
05.04.2016 20:00 12,9 C 73 % 1008,3 hPa 0,0 l/m W-NW 0,00 h 0 W/m 6,2 km/h (2 Bft)
05.04.2016 21:00 12,7 C 73 % 1009,1 hPa 0,0 l/m W-NW 0,00 h 0 W/m 6,0 km/h (2 Bft)
05.04.2016 22:00 12,3 C 74 % 1009,8 hPa 0,0 l/m W-NW 0,00 h 0 W/m 13,8 km/h (3 Bft)
05.04.2016 23:00 11,6 C 77 % 1010,4 hPa 0,0 l/m W-NW 0,00 h 0 W/m 8,2 km/h (2 Bft)
06.04.2016 00:00 9,4 C 89 % 1011,3 hPa 0,8 l/m NW 0,00 h 0 W/m 11,4 km/h (2 Bft)
06.04.2016 01:00 8,7 C 94 % 1011,8 hPa 0,8 l/m N 0,00 h 0 W/m 0,0 km/h (0 Bft)
06.04.2016 02:00 8,4 C 96 % 1012,1 hPa 1,4 l/m NW 0,00 h 0 W/m 3,5 km/h (1 Bft)
06.04.2016 03:00 8,1 C 97 % 1012,1 hPa 1,2 l/m W 0,00 h 0 W/m 7,2 km/h (2 Bft)
06.04.2016 04:00 8,0 C 97 % 1012,1 hPa 1,0 l/m SW 0,00 h 0 W/m 9,8 km/h (2 Bft)
06.04.2016 05:00 7,9 C 97 % 1012,1 hPa 0,6 l/m W-SW 0,00 h 0 W/m 10,5 km/h (2 Bft)
06.04.2016 06:00 7,8 C 97 % 1012,1 hPa 0,4 l/m SW 0,00 h 0 W/m 9,5 km/h (2 Bft)
06.04.2016 07:00 7,7 C 98 % 1012,7 hPa 0,0 l/m SW 0,00 h 16 W/m 6,7 km/h (2 Bft)
06.04.2016 08:00 8,1 C 98 % 1013,2 hPa 0,0 l/m S-SW 0,00 h 64 W/m 9,5 km/h (2 Bft)
06.04.2016 09:00 8,7 C 96 % 1013,5 hPa 0,0 l/m SW 0,00 h 110 W/m 16,0 km/h (3 Bft)
06.04.2016 10:00 9,3 C 94 % 1013,6 hPa 0,0 l/m SW 0,00 h 201 W/m 17,7 km/h (3 Bft)
06.04.2016 11:00 9,6 C 91 % 1013,9 hPa 0,0 l/m SW 0,00 h 127 W/m 16,5 km/h (3 Bft)
06.04.2016 12:00 10,4 C 87 % 1013,5 hPa 0,0 l/m SW 0,08 h 282 W/m 19,2 km/h (3 Bft)
06.04.2016 13:00 11,2 C 80 % 1013,1 hPa 0,0 l/m W-SW 0,00 h 173 W/m 17,4 km/h (3 Bft)
06.04.2016 14:00 11,9 C 76 % 1012,7 hPa 0,0 l/m W-SW 0,00 h 256 W/m 17,2 km/h (3 Bft)
06.04.2016 15:00 13,1 C 72 % 1011,9 hPa 0,0 l/m SW 0,83 h 660 W/m 20,0 km/h (4 Bft)
06.04.2016 16:00 13,8 C 71 % 1011,1 hPa 0,0 l/m SW 0,83 h 516 W/m 23,7 km/h (4 Bft)
06.04.2016 17:00 13,7 C 69 % 1010,7 hPa 0,0 l/m SW 0,92 h 380 W/m 22,0 km/h (4 Bft)
06.04.2016 18:00 13,1 C 70 % 1010,4 hPa 0,0 l/m SW 1,00 h 213 W/m 19,3 km/h (3 Bft)
06.04.2016 19:00 11,5 C 76 % 1010,1 hPa 0,0 l/m SW 0,00 h 23 W/m 12,3 km/h (3 Bft)
06.04.2016 20:00 10,4 C 79 % 1010,1 hPa 0,0 l/m W-SW 0,00 h 0 W/m 9,5 km/h (2 Bft)
06.04.2016 21:00 9,0 C 85 % 1010,2 hPa 0,0 l/m N 0,00 h 0 W/m 0,8 km/h (0 Bft)
06.04.2016 22:00 8,0 C 88 % 1010,5 hPa 0,0 l/m W-SW 0,00 h 0 W/m 1,2 km/h (1 Bft)
06.04.2016 23:00 9,4 C 82 % 1010,6 hPa 0,0 l/m W 0,00 h 0 W/m 9,0 km/h (2 Bft)
07.04.2016 00:00 8,0 C 86 % 1010,8 hPa 0,0 l/m W 0,00 h 0 W/m 0,9 km/h (0 Bft)
07.04.2016 01:00 6,1 C 92 % 1010,7 hPa 0,0 l/m N 0,00 h 0 W/m 0,8 km/h (0 Bft)
07.04.2016 02:00 5,1 C 95 % 1010,4 hPa 0,0 l/m N 0,00 h 0 W/m 0,0 km/h (0 Bft)
07.04.2016 03:00 4,4 C 95 % 1010,2 hPa 0,0 l/m N 0,00 h 0 W/m 0,3 km/h (0 Bft)
07.04.2016 04:00 3,9 C 96 % 1010,0 hPa 0,0 l/m N 0,00 h 0 W/m 0,3 km/h (0 Bft)
07.04.2016 05:00 4,1 C 96 % 1009,9 hPa 0,0 l/m W 0,00 h 0 W/m 5,9 km/h (2 Bft)
07.04.2016 06:00 5,3 C 91 % 1010,1 hPa 0,0 l/m W-SW 0,00 h 6 W/m 10,2 km/h (2 Bft)
07.04.2016 07:00 5,0 C 91 % 1010,5 hPa 0,0 l/m W-SW 0,00 h 30 W/m 9,9 km/h (2 Bft)
07.04.2016 08:00 6,1 C 90 % 1010,5 hPa 0,0 l/m SW 0,17 h 88 W/m 5,8 km/h (2 Bft)
07.04.2016 09:00 7,5 C 89 % 1010,4 hPa 0,0 l/m SW 0,00 h 99 W/m 9,1 km/h (2 Bft)
07.04.2016 10:00 8,2 C 86 % 1010,3 hPa 0,0 l/m S-SW 0,00 h 106 W/m 16,2 km/h (3 Bft)
07.04.2016 11:00 9,1 C 84 % 1010,3 hPa 0,0 l/m SW 0,00 h 154 W/m 14,6 km/h (3 Bft)
07.04.2016 12:00 10,4 C 77 % 1010,0 hPa 0,0 l/m W-SW 0,00 h 211 W/m 19,2 km/h (3 Bft)
07.04.2016 13:00 9,3 C 78 % 1010,2 hPa 0,0 l/m N-NW 0,00 h 71 W/m 15,6 km/h (3 Bft)
07.04.2016 14:00 8,8 C 76 % 1010,4 hPa 0,0 l/m NW 0,00 h 113 W/m 12,2 km/h (2 Bft)
07.04.2016 15:00 8,9 C 72 % 1010,2 hPa 0,0 l/m NW 0,00 h 86 W/m 9,9 km/h (2 Bft)
07.04.2016 16:00 8,8 C 72 % 1010,1 hPa 0,0 l/m NW 0,00 h 47 W/m 0,5 km/h (0 Bft)
07.04.2016 17:00 8,2 C 77 % 1010,4 hPa 0,0 l/m N-NO 0,00 h 17 W/m 9,3 km/h (2 Bft)
07.04.2016 18:00 6,5 C 85 % 1011,0 hPa 0,2 l/m N 0,00 h 14 W/m 10,2 km/h (2 Bft)
07.04.2016 19:00 5,9 C 89 % 1011,3 hPa 0,2 l/m N 0,00 h 6 W/m 0,0 km/h (0 Bft)
07.04.2016 20:00 5,6 C 93 % 1011,8 hPa 0,0 l/m N 0,00 h 0 W/m 0,5 km/h (0 Bft)
07.04.2016 21:00 5,3 C 95 % 1012,2 hPa 0,0 l/m NW 0,00 h 0 W/m 2,3 km/h (1 Bft)
07.04.2016 22:00 5,3 C 96 % 1012,4 hPa 0,2 l/m N 0,00 h 0 W/m 0,3 km/h (0 Bft)
07.04.2016 23:00 5,2 C 96 % 1012,6 hPa 0,0 l/m N 0,00 h 0 W/m 1,6 km/h (1 Bft)
08.04.2016 00:00 5,2 C 97 % 1012,4 hPa 0,6 l/m W-NW 0,00 h 0 W/m 2,0 km/h (1 Bft)
08.04.2016 01:00 5,1 C 97 % 1012,0 hPa 0,0 l/m W 0,00 h 0 W/m 1,1 km/h (0 Bft)
08.04.2016 02:00 5,1 C 97 % 1012,0 hPa 0,0 l/m W-SW 0,00 h 0 W/m 5,6 km/h (1 Bft)
08.04.2016 03:00 4,8 C 97 % 1011,6 hPa 0,0 l/m W-SW 0,00 h 0 W/m 4,7 km/h (1 Bft)
08.04.2016 04:00 4,3 C 96 % 1011,3 hPa 0,0 l/m W-SW 0,00 h 0 W/m 3,7 km/h (1 Bft)
08.04.2016 05:00 3,8 C 96 % 1011,1 hPa 0,0 l/m W-SW 0,00 h 0 W/m 1,7 km/h (1 Bft)
08.04.2016 06:00 3,4 C 97 % 1011,0 hPa 0,0 l/m N 0,00 h 5 W/m 0,0 km/h (0 Bft)
08.04.2016 07:00 3,4 C 97 % 1011,1 hPa 0,0 l/m N 0,00 h 21 W/m 0,0 km/h (0 Bft)
08.04.2016 08:00 4,0 C 94 % 1011,2 hPa 0,0 l/m N 0,00 h 60 W/m 0,0 km/h (0 Bft)
08.04.2016 09:00 4,7 C 91 % 1011,2 hPa 0,0 l/m W-SW 0,00 h 92 W/m 1,1 km/h (0 Bft)
08.04.2016 10:00 5,7 C 86 % 1011,1 hPa 0,0 l/m W-SW 0,00 h 166 W/m 6,7 km/h (2 Bft)
08.04.2016 11:00 6,8 C 81 % 1010,8 hPa 0,0 l/m O 0,00 h 207 W/m 10,5 km/h (2 Bft)
08.04.2016 12:00 7,2 C 79 % 1010,4 hPa 0,0 l/m O-SO 0,00 h 225 W/m 9,3 km/h (2 Bft)
08.04.2016 13:00 7,1 C 82 % 1010,0 hPa 0,2 l/m O-SO 0,00 h 164 W/m 7,1 km/h (2 Bft)
08.04.2016 14:00 7,4 C 80 % 1009,6 hPa 0,0 l/m O-NO 0,00 h 130 W/m 8,4 km/h (2 Bft)
08.04.2016 15:00 7,3 C 77 % 1009,3 hPa 0,0 l/m O 0,00 h 93 W/m 7,5 km/h (2 Bft)
08.04.2016 16:00 7,1 C 81 % 1009,0 hPa 0,4 l/m O 0,00 h 60 W/m 5,9 km/h (2 Bft)
08.04.2016 17:00 6,6 C 83 % 1008,8 hPa 0,2 l/m O-NO 0,00 h 60 W/m 6,7 km/h (2 Bft)
08.04.2016 18:00 6,5 C 85 % 1008,8 hPa 0,6 l/m O-NO 0,00 h 32 W/m 5,4 km/h (1 Bft)
08.04.2016 19:00 6,0 C 86 % 1008,9 hPa 0,0 l/m O-NO 0,00 h 15 W/m 6,0 km/h (2 Bft)
08.04.2016 20:00 5,8 C 86 % 1009,0 hPa 0,0 l/m NO 0,00 h 0 W/m 5,3 km/h (1 Bft)
08.04.2016 21:00 5,7 C 87 % 1009,1 hPa 0,2 l/m NO 0,00 h 0 W/m 3,2 km/h (1 Bft)
08.04.2016 22:00 5,3 C 92 % 1008,9 hPa 0,4 l/m N 0,00 h 0 W/m 0,8 km/h (0 Bft)
08.04.2016 23:00 5,0 C 94 % 1008,5 hPa 1,2 l/m NO 0,00 h 0 W/m 5,5 km/h (1 Bft)
09.04.2016 00:00 5,0 C 94 % 1008,1 hPa 0,0 l/m N 0,00 h 0 W/m 0,3 km/h (0 Bft)
09.04.2016 01:00 4,8 C 95 % 1007,9 hPa 0,0 l/m N 0,00 h 0 W/m 0,0 km/h (0 Bft)
09.04.2016 02:00 4,4 C 97 % 1007,4 hPa 0,0 l/m N 0,00 h 0 W/m 0,0 km/h (0 Bft)
09.04.2016 03:00 4,4 C 97 % 1007,1 hPa 0,0 l/m N 0,00 h 0 W/m 0,0 km/h (0 Bft)
09.04.2016 04:00 4,4 C 97 % 1006,8 hPa 0,0 l/m N 0,00 h 0 W/m 0,0 km/h (0 Bft)
09.04.2016 05:00 4,2 C 97 % 1006,6 hPa 0,0 l/m N 0,00 h 0 W/m 0,0 km/h (0 Bft)
09.04.2016 06:00 4,0 C 98 % 1006,5 hPa 0,0 l/m N 0,00 h 5 W/m 0,0 km/h (0 Bft)
09.04.2016 07:00 4,2 C 97 % 1006,4 hPa 0,0 l/m N 0,00 h 27 W/m 1,6 km/h (1 Bft)
09.04.2016 08:00 5,1 C 94 % 1006,5 hPa 0,0 l/m NO 0,00 h 78 W/m 1,3 km/h (1 Bft)
09.04.2016 09:00 6,0 C 89 % 1006,5 hPa 0,0 l/m NO 0,00 h 123 W/m 8,0 km/h (2 Bft)
09.04.2016 10:00 6,7 C 85 % 1006,7 hPa 0,0 l/m O 0,00 h 140 W/m 15,7 km/h (3 Bft)
09.04.2016 11:00 7,2 C 83 % 1006,5 hPa 0,0 l/m O 0,00 h 161 W/m 16,9 km/h (3 Bft)
09.04.2016 12:00 7,2 C 81 % 1006,5 hPa 0,0 l/m O 0,00 h 93 W/m 17,3 km/h (3 Bft)
09.04.2016 13:00 7,6 C 79 % 1006,2 hPa 0,0 l/m O-NO 0,00 h 142 W/m 15,6 km/h (3 Bft)
09.04.2016 14:00 8,2 C 76 % 1005,9 hPa 0,0 l/m O-NO 0,00 h 141 W/m 16,2 km/h (3 Bft)
09.04.2016 15:00 8,5 C 75 % 1005,7 hPa 0,0 l/m O-NO 0,00 h 118 W/m 13,8 km/h (3 Bft)
09.04.2016 16:00 7,7 C 79 % 1005,9 hPa 0,0 l/m O 0,00 h 48 W/m 15,0 km/h (3 Bft)
09.04.2016 17:00 7,1 C 82 % 1006,3 hPa 0,0 l/m O-NO 0,00 h 34 W/m 12,1 km/h (2 Bft)
09.04.2016 18:00 6,8 C 84 % 1006,5 hPa 0,0 l/m O-NO 0,00 h 17 W/m 6,3 km/h (2 Bft)
09.04.2016 19:00 6,6 C 86 % 1007,0 hPa 0,0 l/m O-NO 0,00 h 6 W/m 2,1 km/h (1 Bft)
09.04.2016 20:00 6,0 C 92 % 1007,7 hPa 0,0 l/m N 0,00 h 0 W/m 0,0 km/h (0 Bft)
09.04.2016 21:00 6,0 C 92 % 1008,3 hPa 0,0 l/m N 0,00 h 0 W/m 0,0 km/h (0 Bft)
09.04.2016 22:00 6,1 C 93 % 1008,5 hPa 0,4 l/m N 0,00 h 0 W/m 0,0 km/h (0 Bft)
09.04.2016 23:00 6,1 C 95 % 1008,5 hPa 0,0 l/m N 0,00 h 0 W/m 0,0 km/h (0 Bft)
10.04.2016 00:00 6,0 C 95 % 1008,6 hPa 0,0 l/m N 0,00 h 0 W/m 0,0 km/h (0 Bft)
10.04.2016 01:00 5,9 C 95 % 1008,9 hPa 0,0 l/m N 0,00 h 0 W/m 0,0 km/h (0 Bft)
10.04.2016 02:00 5,7 C 96 % 1009,0 hPa 0,0 l/m N 0,00 h 0 W/m 0,0 km/h (0 Bft)
10.04.2016 03:00 5,6 C 97 % 1009,2 hPa 0,0 l/m O-NO 0,00 h 0 W/m 1,9 km/h (1 Bft)
10.04.2016 04:00 5,4 C 97 % 1009,6 hPa 0,0 l/m SO 0,00 h 0 W/m 5,5 km/h (1 Bft)
10.04.2016 05:00 5,4 C 98 % 1009,8 hPa 0,0 l/m S 0,00 h 0 W/m 5,6 km/h (1 Bft)
10.04.2016 06:00 5,4 C 98 % 1009,9 hPa 0,0 l/m S 0,00 h 0 W/m 1,5 km/h (1 Bft)
10.04.2016 07:00 5,4 C 98 % 1010,1 hPa 0,0 l/m N 0,00 h 12 W/m 0,0 km/h (0 Bft)
10.04.2016 08:00 5,8 C 98 % 1010,2 hPa 0,0 l/m N 0,00 h 57 W/m 0,7 km/h (0 Bft)
10.04.2016 09:00 6,7 C 97 % 1010,3 hPa 0,0 l/m S 0,00 h 182 W/m 3,5 km/h (1 Bft)
10.04.2016 10:00 8,2 C 89 % 1010,4 hPa 0,0 l/m S 0,75 h 453 W/m 4,0 km/h (1 Bft)
10.04.2016 11:00 10,4 C 75 % 1010,1 hPa 0,0 l/m SO 0,92 h 621 W/m 8,3 km/h (2 Bft)
10.04.2016 12:00 11,7 C 67 % 1009,9 hPa 0,0 l/m SO 1,00 h 751 W/m 8,0 km/h (2 Bft)
10.04.2016 13:00 13,3 C 59 % 1009,4 hPa 0,0 l/m O 1,00 h 788 W/m 9,9 km/h (2 Bft)
10.04.2016 14:00 13,0 C 59 % 1009,1 hPa 0,0 l/m O-SO 0,08 h 228 W/m 10,1 km/h (2 Bft)
10.04.2016 15:00 13,6 C 59 % 1008,9 hPa 0,0 l/m O 0,42 h 454 W/m 14,0 km/h (3 Bft)
10.04.2016 16:00 14,3 C 55 % 1008,4 hPa 0,0 l/m NO 0,92 h 559 W/m 15,6 km/h (3 Bft)
10.04.2016 17:00 14,1 C 54 % 1008,2 hPa 0,0 l/m O-NO 0,92 h 389 W/m 16,6 km/h (3 Bft)
10.04.2016 18:00 13,7 C 55 % 1008,4 hPa 0,0 l/m O-NO 1,00 h 237 W/m 16,1 km/h (3 Bft)
10.04.2016 19:00 12,4 C 60 % 1008,5 hPa 0,0 l/m O-NO 0,00 h 29 W/m 12,5 km/h (3 Bft)
10.04.2016 20:00 10,7 C 67 % 1008,6 hPa 0,0 l/m O-NO 0,00 h 5 W/m 6,7 km/h (2 Bft)
10.04.2016 21:00 9,5 C 73 % 1008,7 hPa 0,0 l/m O-NO 0,00 h 0 W/m 6,5 km/h (2 Bft)
10.04.2016 22:00 8,3 C 77 % 1008,8 hPa 0,0 l/m O-NO 0,00 h 0 W/m 5,6 km/h (1 Bft)
10.04.2016 23:00 7,0 C 82 % 1009,0 hPa 0,0 l/m N 0,00 h 0 W/m 1,7 km/h (1 Bft)
Min-Datum _ 08.04.16 04.04.16 05.04.16 - - - - 04.04.16
_ Min-Zeit 06:35 16:15 06:20 - - - - 00:00
Minimum _ 3,3 C 40 % 1002,4 hPa - - - - 0,0 km/h (0 Bft)
Max-Datum _ 04.04.16 06.04.16 06.04.16 06.04.16 - 04.04.16 10.04.16 06.04.16
_ Max-Zeit 16:20 07:15 11:15 02:05 - 08:40 13:55 17:05
Maximum _ 22,7 C 98 % 1014,0 hPa 1,4 l/m - 0,08 h 881 W/m 30,6 km/h
SW (5 Bft)
Durchschnitt _ 9,1 C 83 % 1008,5 hPa #11,0 l/m O-NO #22:25 h 206 W/m 7,0 km/h (2 Bft)